map of QRA home
QRA - Airport
Location
City:  Johannesburg, Gauteng, South Africa
Name:Rand/Germiston Airport
ICAO:FAGM
IATA:QRA

Details
Type:Airport (Aerodrome, Airfield)
Use:Public/Civil
Latitude:2614'33"S (-26.242505)
Longitude:2809'04"E (28.151169)
Datum:WGS 1984
Elevation:5483 ft (1671 m)
Variation:19.07W (WMM2015v2 magnetic declination)
-0.11 annual change
Runways:2
Longest:5617 × 50 ft (1712 × 15 m), paved

Time
Time Zone:UTC+2
Local Time:

Weather
METAR:FAGM 041400Z 33015KT 9999 FEW035 23/13 Q1021

Related Locations
Nearby:
Farthest:HNM: 11977 mi / 19275 km
Hana, Maui, HI, US

Find:

   beyond  
but within

Other Information
Maps:
NOTAMs:
Links:
Sources:

  
  • flag of South Africa
  • flag of Gauteng
  • flag of Johannesburg
  

Sectional Chart

Flight Planning
at skyvector.com

Satellite Image

Google Maps Satellite view

 

Copyright © 2004-2019 Karl L. Swartz. All rights reserved.
The Great Circle Mapper name and logo are trademarks of the Great Circle Mapper.
All other trademarks mentioned herein belong to their respective owners.
Please see credits for attibutions and further copyright information.

  Follow gcmap on Facebook Follow gcmap on Twitter GCmap on LinkedIn

hCard Microformat

Geo Microformat